createdAt,value
2022-11-24T00:01:09.501Z,-1.65
2022-11-24T00:03:36.503Z,-1.69
2022-11-24T00:06:07.685Z,-1.72
2022-11-24T00:08:38.671Z,-1.73
2022-11-24T00:11:11.673Z,-1.73
2022-11-24T00:13:41.791Z,-1.72
2022-11-24T00:16:14.622Z,-1.80
2022-11-24T00:18:43.250Z,-1.82
2022-11-24T00:21:10.342Z,-1.81
2022-11-24T00:23:37.226Z,-1.88
2022-11-24T00:26:08.935Z,-1.89
2022-11-24T00:28:36.800Z,-1.86
2022-11-24T00:31:04.443Z,-1.87
2022-11-24T00:33:31.458Z,-1.84
2022-11-24T00:35:58.684Z,-1.89
2022-11-24T00:38:25.875Z,-1.90
2022-11-24T00:40:53.227Z,-1.91
2022-11-24T00:43:19.771Z,-1.92
2022-11-24T00:45:46.404Z,-1.96
2022-11-24T00:48:13.064Z,-1.96
2022-11-24T00:50:39.627Z,-1.97
2022-11-24T00:53:06.128Z,-1.97
2022-11-24T00:55:32.604Z,-1.97
2022-11-24T00:57:59.179Z,-1.97
2022-11-24T01:00:26.480Z,-2.00
2022-11-24T01:02:53.369Z,-2.01
2022-11-24T01:05:20.126Z,-2.03
2022-11-24T01:07:46.711Z,-2.01
2022-11-24T01:10:13.327Z,-2.04
2022-11-24T01:12:39.854Z,-2.06
2022-11-24T01:15:06.746Z,-2.06
2022-11-24T01:17:33.275Z,-2.11
2022-11-24T01:19:59.808Z,-2.12
2022-11-24T01:22:27.529Z,-2.10
2022-11-24T01:24:54.028Z,-2.12
2022-11-24T01:27:20.562Z,-2.11
2022-11-24T01:29:47.086Z,-2.14
2022-11-24T01:32:13.628Z,-2.16
2022-11-24T01:34:40.144Z,-2.17
2022-11-24T01:37:06.654Z,-2.17
2022-11-24T01:39:33.129Z,-2.19
2022-11-24T01:42:02.672Z,-2.20
2022-11-24T01:44:31.190Z,-2.21
2022-11-24T01:47:02.599Z,-2.21
2022-11-24T01:49:43.667Z,-2.23
2022-11-24T01:52:16.028Z,-2.23
2022-11-24T01:54:48.752Z,-2.28
2022-11-24T01:57:32.263Z,-2.31
2022-11-24T02:00:08.297Z,-2.33
2022-11-24T02:02:35.573Z,-2.34
2022-11-24T02:05:08.636Z,-2.34
2022-11-24T02:07:37.189Z,-2.29
2022-11-24T02:10:10.475Z,-2.26
2022-11-24T02:12:39.236Z,-2.27
2022-11-24T02:15:06.488Z,-2.26
2022-11-24T02:17:33.003Z,-2.25
2022-11-24T02:20:05.997Z,-2.25
2022-11-24T02:22:32.444Z,-2.29
2022-11-24T02:25:15.441Z,-2.29
2022-11-24T02:27:49.395Z,-2.32
2022-11-24T02:30:19.074Z,-2.35
2022-11-24T02:32:45.623Z,-2.34
2022-11-24T02:35:12.757Z,-2.35
2022-11-24T02:37:39.280Z,-2.38
2022-11-24T02:40:06.445Z,-2.38
2022-11-24T02:42:42.417Z,-2.41
2022-11-24T02:45:11.375Z,-2.43
2022-11-24T02:47:37.889Z,-2.46
2022-11-24T02:50:04.846Z,-2.48
2022-11-24T02:52:31.264Z,-2.49
2022-11-24T02:54:57.757Z,-2.52
2022-11-24T02:57:24.421Z,-2.55
2022-11-24T02:59:50.910Z,-2.55
2022-11-24T03:02:17.476Z,-2.57
2022-11-24T03:04:44.691Z,-2.58
2022-11-24T03:07:11.336Z,-2.62
2022-11-24T03:09:37.952Z,-2.65
2022-11-24T03:12:04.639Z,-2.65
2022-11-24T03:14:31.489Z,-2.68
2022-11-24T03:16:58.090Z,-2.71
2022-11-24T03:19:24.592Z,-2.71
2022-11-24T03:21:51.107Z,-2.70
2022-11-24T03:24:17.595Z,-2.74
2022-11-24T03:26:44.117Z,-2.71
2022-11-24T03:29:10.730Z,-2.76
2022-11-24T03:31:37.343Z,-2.75
2022-11-24T03:34:04.038Z,-2.73
2022-11-24T03:36:30.500Z,-2.70
2022-11-24T03:38:57.015Z,-2.69
2022-11-24T03:41:23.515Z,-2.67
2022-11-24T03:43:50.118Z,-2.65
2022-11-24T03:46:16.644Z,-2.66
2022-11-24T03:48:43.361Z,-2.68
2022-11-24T03:51:10.528Z,-2.68
2022-11-24T03:53:37.212Z,-2.69
2022-11-24T03:56:03.960Z,-2.70
2022-11-24T03:58:31.215Z,-2.74
2022-11-24T04:00:58.035Z,-2.76
2022-11-24T04:03:25.359Z,-2.81
2022-11-24T04:05:52.112Z,-2.84
2022-11-24T04:08:19.159Z,-2.86
2022-11-24T04:10:48.938Z,-2.89
2022-11-24T04:13:17.753Z,-2.89
2022-11-24T04:15:44.936Z,-2.92
2022-11-24T04:18:13.194Z,-2.90
2022-11-24T04:20:44.136Z,-2.92
2022-11-24T04:23:11.426Z,-2.95
2022-11-24T04:25:38.513Z,-2.94
2022-11-24T04:28:05.104Z,-2.97
2022-11-24T04:30:32.266Z,-3.00
2022-11-24T04:32:58.997Z,-2.99
2022-11-24T04:35:25.559Z,-3.01
2022-11-24T04:37:52.137Z,-3.03
2022-11-24T04:40:19.326Z,-3.03
2022-11-24T04:42:53.911Z,-3.03
2022-11-24T04:45:20.494Z,-3.03
2022-11-24T04:47:47.019Z,-2.98
2022-11-24T04:50:13.601Z,-3.02
2022-11-24T04:52:40.137Z,-2.97
2022-11-24T04:55:07.159Z,-3.02
2022-11-24T04:57:33.577Z,-3.00
2022-11-24T05:00:00.133Z,-3.02
2022-11-24T05:02:26.628Z,-2.97
2022-11-24T05:04:53.121Z,-2.92
2022-11-24T05:07:19.886Z,-2.87
2022-11-24T05:10:06.216Z,-2.80
2022-11-24T05:12:33.691Z,-2.72
2022-11-24T05:15:01.638Z,-2.66
2022-11-24T05:17:30.881Z,-2.60
2022-11-24T05:19:57.979Z,-2.53
2022-11-24T05:22:25.210Z,-2.48
2022-11-24T05:24:51.745Z,-2.44
2022-11-24T05:27:18.275Z,-2.39
2022-11-24T05:29:44.776Z,-2.33
2022-11-24T05:32:11.320Z,-2.31
2022-11-24T05:34:37.804Z,-2.18
2022-11-24T05:37:04.957Z,-2.16
2022-11-24T05:39:36.251Z,-2.14
2022-11-24T05:42:24.813Z,-2.12
2022-11-24T05:44:51.731Z,-2.05
2022-11-24T05:47:18.566Z,-2.03
2022-11-24T05:49:45.241Z,-1.99
2022-11-24T05:52:12.321Z,-1.94
2022-11-24T05:54:38.820Z,-1.91
2022-11-24T05:57:05.390Z,-1.91
2022-11-24T05:59:31.947Z,-1.85
2022-11-24T06:01:58.696Z,-1.81
2022-11-24T06:04:25.532Z,-1.76
2022-11-24T06:06:52.136Z,-1.74
2022-11-24T06:09:18.783Z,-1.68
2022-11-24T06:11:47.397Z,-1.64
2022-11-24T06:14:14.616Z,-1.58
2022-11-24T06:16:41.541Z,-1.53
2022-11-24T06:19:09.366Z,-1.48
2022-11-24T06:21:35.906Z,-1.42
2022-11-24T06:24:02.549Z,-1.39
2022-11-24T06:26:29.046Z,-1.36
2022-11-24T06:28:55.553Z,-1.32
2022-11-24T06:31:22.135Z,-1.28
2022-11-24T06:33:48.724Z,-1.23
2022-11-24T06:36:15.524Z,-1.21
2022-11-24T06:38:42.127Z,-1.17
2022-11-24T06:41:12.805Z,-1.14
2022-11-24T06:43:39.912Z,-1.09
2022-11-24T06:46:06.700Z,-1.04
2022-11-24T06:48:33.498Z,-0.99
2022-11-24T06:51:01.395Z,-0.95
2022-11-24T06:53:38.197Z,-0.91
2022-11-24T06:56:13.775Z,-0.87
2022-11-24T06:58:44.598Z,-0.82
2022-11-24T07:01:15.430Z,-0.80
2022-11-24T07:03:42.287Z,-0.74
2022-11-24T07:06:08.919Z,-0.70
2022-11-24T07:08:35.445Z,-0.64
2022-11-24T07:11:10.148Z,-0.60
2022-11-24T07:13:37.072Z,-0.57
2022-11-24T07:16:15.294Z,-0.50
2022-11-24T07:18:43.589Z,-0.50
2022-11-24T07:21:10.369Z,-0.47
2022-11-24T07:23:37.719Z,-0.44
2022-11-24T07:26:07.018Z,-0.42
2022-11-24T07:28:34.987Z,-0.39
2022-11-24T07:31:08.785Z,-0.34
2022-11-24T07:33:35.858Z,-0.30
2022-11-24T07:36:02.856Z,-0.30
2022-11-24T07:38:31.023Z,-0.26
2022-11-24T07:41:10.220Z,-0.23
2022-11-24T07:43:37.745Z,-0.19
2022-11-24T07:46:05.929Z,-0.19
2022-11-24T07:48:32.502Z,-0.16
2022-11-24T07:51:00.483Z,-0.07
2022-11-24T07:53:27.774Z,-0.02
2022-11-24T07:56:01.840Z,0.05
2022-11-24T07:58:32.635Z,0.14
2022-11-24T08:01:00.576Z,0.18
2022-11-24T08:03:27.588Z,0.23
2022-11-24T08:06:23.205Z,0.29
2022-11-24T08:08:45.307Z,0.37
2022-11-24T08:11:17.118Z,0.41
2022-11-24T08:13:44.435Z,0.49
2022-11-24T08:16:17.483Z,0.55
2022-11-24T08:18:48.699Z,0.61
2022-11-24T08:21:15.404Z,0.70
2022-11-24T08:23:42.437Z,0.77
2022-11-24T08:26:11.232Z,0.88
2022-11-24T08:28:38.300Z,0.98
2022-11-24T08:31:08.925Z,1.10
2022-11-24T08:33:36.209Z,1.20
2022-11-24T08:36:17.339Z,1.31
2022-11-24T08:38:44.844Z,1.40
2022-11-24T08:41:14.169Z,1.49
2022-11-24T08:43:40.958Z,1.56
2022-11-24T08:46:13.803Z,1.67
2022-11-24T08:48:41.606Z,1.78
2022-11-24T08:51:11.707Z,1.89
2022-11-24T08:53:38.978Z,2.00
2022-11-24T08:56:06.678Z,2.09
2022-11-24T08:58:34.252Z,2.18
2022-11-24T09:01:17.590Z,2.23
2022-11-24T09:03:51.399Z,2.38
2022-11-24T09:06:22.867Z,2.39
2022-11-24T09:08:49.844Z,2.37
2022-11-24T09:11:17.331Z,2.37
2022-11-24T09:13:46.749Z,2.37
2022-11-24T09:16:19.144Z,2.38
2022-11-24T09:18:46.444Z,2.39
2022-11-24T09:21:16.645Z,2.41
2022-11-24T09:23:44.500Z,2.42
2022-11-24T09:26:20.075Z,2.46
2022-11-24T09:28:48.118Z,2.51
2022-11-24T09:31:17.088Z,2.55
2022-11-24T09:33:44.677Z,2.62
2022-11-24T09:36:13.273Z,2.63
2022-11-24T09:38:40.357Z,2.66
2022-11-24T09:41:25.714Z,2.68
2022-11-24T09:44:01.024Z,2.78
2022-11-24T09:46:49.337Z,2.79
2022-11-24T09:49:24.235Z,2.81
2022-11-24T09:51:55.198Z,2.84
2022-11-24T09:54:28.790Z,2.94
2022-11-24T09:56:59.797Z,2.93
2022-11-24T09:59:27.560Z,3.01
2022-11-24T10:01:55.896Z,3.03
2022-11-24T10:04:29.626Z,3.14
2022-11-24T10:07:21.259Z,3.18
2022-11-24T10:10:01.115Z,3.34
2022-11-24T10:12:49.439Z,3.50
2022-11-24T10:15:41.593Z,3.63
2022-11-24T10:18:46.857Z,3.65
2022-11-24T10:21:19.416Z,3.69
2022-11-24T10:24:22.820Z,3.74
2022-11-24T10:27:01.640Z,3.77
2022-11-24T10:29:39.194Z,3.92
2022-11-24T10:32:13.422Z,3.88
2022-11-24T10:34:49.966Z,3.94
2022-11-24T10:37:28.265Z,4.07
2022-11-24T10:40:40.960Z,4.18
2022-11-24T10:43:11.238Z,4.18
2022-11-24T10:45:39.376Z,4.18
2022-11-24T10:48:20.169Z,4.23
2022-11-24T10:50:47.099Z,4.28
2022-11-24T10:53:34.956Z,4.42
2022-11-24T10:56:04.935Z,4.40
2022-11-24T10:58:38.486Z,4.40
2022-11-24T11:01:14.403Z,4.42
2022-11-24T11:03:59.687Z,4.57
2022-11-24T11:06:31.655Z,4.64
2022-11-24T11:09:07.147Z,4.61
2022-11-24T11:11:41.858Z,4.66
2022-11-24T11:14:12.936Z,4.71
2022-11-24T11:16:53.137Z,4.75
2022-11-24T11:19:49.845Z,4.89
2022-11-24T11:22:30.311Z,4.89
2022-11-24T11:25:07.982Z,5.04
2022-11-24T11:27:34.718Z,5.21
2022-11-24T11:35:50.338Z,5.39
2022-11-24T11:38:17.119Z,5.45
2022-11-24T11:40:43.935Z,5.56
2022-11-24T11:43:19.802Z,5.63
2022-11-24T11:45:49.857Z,5.71
2022-11-24T11:48:25.435Z,5.76
2022-11-24T11:51:25.248Z,5.81
2022-11-24T11:54:01.007Z,5.87
2022-11-24T11:56:40.350Z,5.90
2022-11-24T11:59:12.902Z,5.93
2022-11-24T12:02:01.341Z,5.97
2022-11-24T12:04:44.098Z,6.01
2022-11-24T12:07:25.524Z,5.99
2022-11-24T12:09:52.076Z,5.94
2022-11-24T12:12:30.657Z,5.94
2022-11-24T12:15:10.806Z,5.94
2022-11-24T12:17:55.595Z,5.89
2022-11-24T12:20:51.040Z,5.86
2022-11-24T12:23:42.070Z,5.84
2022-11-24T12:26:26.418Z,5.83
2022-11-24T12:29:05.009Z,5.88
2022-11-24T12:31:51.780Z,5.88
2022-11-24T12:34:33.590Z,5.90
2022-11-24T12:37:03.095Z,5.98
2022-11-24T12:39:53.119Z,6.01
2022-11-24T12:42:50.998Z,6.12
2022-11-24T12:45:40.763Z,6.16
2022-11-24T12:48:15.552Z,6.21
2022-11-24T12:50:45.395Z,6.27
2022-11-24T12:53:26.201Z,6.30
2022-11-24T12:55:54.704Z,6.28
2022-11-24T12:59:15.712Z,6.36
2022-11-24T13:01:51.144Z,6.38
2022-11-24T13:04:38.057Z,6.42
2022-11-24T13:07:11.564Z,6.51
2022-11-24T13:09:38.164Z,6.56
2022-11-24T13:12:12.761Z,6.60
2022-11-24T13:14:43.350Z,6.69
2022-11-24T13:17:42.004Z,6.71
2022-11-24T13:20:25.416Z,6.74
2022-11-24T13:22:54.621Z,6.75
2022-11-24T13:25:24.625Z,6.72
2022-11-24T13:27:53.542Z,6.70
2022-11-24T13:30:35.215Z,6.70
2022-11-24T13:33:16.017Z,6.67
2022-11-24T13:36:04.178Z,6.63
2022-11-24T13:38:50.929Z,6.61
2022-11-24T13:41:32.528Z,6.54
2022-11-24T13:44:17.422Z,6.49
2022-11-24T13:47:07.032Z,6.41
2022-11-24T13:49:41.888Z,6.43
2022-11-24T13:52:39.678Z,6.39
2022-11-24T13:55:12.091Z,6.36
2022-11-24T13:57:42.808Z,6.23
2022-11-24T14:00:33.972Z,6.20
2022-11-24T14:03:19.107Z,6.17
2022-11-24T14:05:51.349Z,6.13
2022-11-24T14:08:29.116Z,6.08
2022-11-24T14:11:11.684Z,6.02
2022-11-24T14:16:29.605Z,5.90
2022-11-24T14:19:10.092Z,5.84
2022-11-24T14:21:41.300Z,5.81
2022-11-24T14:24:42.201Z,5.77
2022-11-24T14:27:17.590Z,5.73
2022-11-24T14:29:59.146Z,5.69
2022-11-24T14:32:26.027Z,5.64
2022-11-24T14:34:54.213Z,5.63
2022-11-24T14:37:21.285Z,5.62
2022-11-24T14:39:47.848Z,5.58
2022-11-24T14:42:27.489Z,5.55
2022-11-24T14:44:58.705Z,5.50
2022-11-24T14:47:32.494Z,5.48
2022-11-24T14:50:19.333Z,5.41
2022-11-24T14:52:49.620Z,5.35
2022-11-24T14:55:30.722Z,5.27
2022-11-24T14:57:58.362Z,5.20
2022-11-24T15:00:24.830Z,5.13
2022-11-24T15:03:07.129Z,5.07
2022-11-24T15:05:55.078Z,4.99
2022-11-24T15:08:24.173Z,4.95
2022-11-24T15:11:06.286Z,4.89
2022-11-24T15:13:37.424Z,4.84
2022-11-24T15:16:07.834Z,4.78
2022-11-24T15:18:47.092Z,4.76
2022-11-24T15:21:18.892Z,4.74
2022-11-24T15:24:05.964Z,4.70
2022-11-24T15:26:38.297Z,4.67
2022-11-24T15:29:08.348Z,4.66
2022-11-24T15:31:35.054Z,4.63
2022-11-24T15:34:01.670Z,4.63
2022-11-24T15:36:28.262Z,4.63
2022-11-24T15:38:54.810Z,4.61
2022-11-24T15:41:25.811Z,4.60
2022-11-24T15:43:58.874Z,4.61
2022-11-24T15:46:29.925Z,4.60
2022-11-24T15:48:57.254Z,4.59
2022-11-24T15:51:26.789Z,4.58
2022-11-24T15:54:00.293Z,4.62
2022-11-24T15:56:33.011Z,4.62
2022-11-24T15:59:00.785Z,4.60
2022-11-24T16:01:31.396Z,4.58
2022-11-24T16:03:58.283Z,4.56
2022-11-24T16:06:25.584Z,4.51
2022-11-24T16:08:55.932Z,4.45
2022-11-24T16:11:23.247Z,4.41
2022-11-24T16:13:53.398Z,4.35
2022-11-24T16:16:21.196Z,4.31
2022-11-24T16:18:47.769Z,4.27
2022-11-24T16:21:14.478Z,4.24
2022-11-24T16:23:41.103Z,4.18
2022-11-24T16:26:07.860Z,4.14
2022-11-24T16:28:34.537Z,4.09
2022-11-24T16:31:01.491Z,4.04
2022-11-24T16:33:32.380Z,4.00
2022-11-24T16:35:59.012Z,3.99
2022-11-24T16:38:25.660Z,3.94
2022-11-24T16:40:54.075Z,3.92
2022-11-24T16:43:21.307Z,3.88
2022-11-24T16:46:18.644Z,3.85
2022-11-24T16:48:46.781Z,3.80
2022-11-24T16:51:14.185Z,3.79
2022-11-24T16:53:41.162Z,3.76
2022-11-24T16:56:08.105Z,3.67
2022-11-24T16:58:38.017Z,3.61
2022-11-24T17:01:10.489Z,3.54
2022-11-24T17:03:37.951Z,3.49
2022-11-24T17:06:09.950Z,3.47
2022-11-24T17:08:38.513Z,3.47
2022-11-24T17:11:06.681Z,3.47
2022-11-24T17:13:34.032Z,3.46
2022-11-24T17:16:05.572Z,3.45
2022-11-24T17:18:32.252Z,3.44
2022-11-24T17:21:03.227Z,3.46
2022-11-24T17:23:32.759Z,3.49
2022-11-24T17:26:03.611Z,3.48
2022-11-24T17:28:30.204Z,3.48
2022-11-24T17:30:57.111Z,3.49
2022-11-24T17:33:24.101Z,3.51
2022-11-24T17:35:50.546Z,3.53
2022-11-24T17:38:17.116Z,3.52
2022-11-24T17:40:48.094Z,3.52
2022-11-24T17:43:14.673Z,3.52
2022-11-24T17:45:41.383Z,3.51
2022-11-24T17:48:08.466Z,3.51
2022-11-24T17:50:34.987Z,3.47
2022-11-24T17:53:01.508Z,3.47
2022-11-24T17:55:27.982Z,3.46
2022-11-24T17:57:55.955Z,3.44
2022-11-24T18:00:22.682Z,3.41
2022-11-24T18:02:49.313Z,3.36
2022-11-24T18:05:16.103Z,3.30
2022-11-24T18:07:42.731Z,3.26
2022-11-24T18:10:09.726Z,3.24
2022-11-24T18:12:36.158Z,3.26
2022-11-24T18:15:02.678Z,3.26
2022-11-24T18:17:29.244Z,3.29
2022-11-24T18:19:56.294Z,3.30
2022-11-24T18:22:42.990Z,3.28
2022-11-24T18:25:09.645Z,3.29
2022-11-24T18:27:36.200Z,3.24
2022-11-24T18:30:03.879Z,3.18
2022-11-24T18:32:30.406Z,3.11
2022-11-24T18:34:56.932Z,3.05
2022-11-24T18:37:23.526Z,3.02
2022-11-24T18:39:50.078Z,2.97
2022-11-24T18:42:17.756Z,2.93
2022-11-24T18:44:45.436Z,2.88
2022-11-24T18:47:14.193Z,2.83
2022-11-24T18:49:40.708Z,2.82
2022-11-24T18:52:07.234Z,2.85
2022-11-24T18:54:34.094Z,2.86
2022-11-24T18:57:03.467Z,2.84
2022-11-24T18:59:30.387Z,2.79
2022-11-24T19:01:58.090Z,2.73
2022-11-24T19:04:26.310Z,2.66
2022-11-24T19:06:52.895Z,2.66
2022-11-24T19:09:22.527Z,2.67
2022-11-24T19:11:49.142Z,2.67
2022-11-24T19:14:19.107Z,2.65
2022-11-24T19:16:48.053Z,2.64
2022-11-24T19:19:15.175Z,2.67
2022-11-24T19:21:41.707Z,2.69
2022-11-24T19:24:13.290Z,2.69
2022-11-24T19:26:40.234Z,2.78
2022-11-24T19:29:07.607Z,2.87
2022-11-24T19:31:35.246Z,2.91
2022-11-24T19:34:03.500Z,2.95
2022-11-24T19:36:30.261Z,2.98
2022-11-24T19:38:58.118Z,3.03
2022-11-24T19:41:27.766Z,3.10
2022-11-24T19:43:54.750Z,3.18
2022-11-24T19:46:22.261Z,3.19
2022-11-24T19:48:50.574Z,3.24
2022-11-24T19:51:25.496Z,3.29
2022-11-24T19:53:53.058Z,3.23
2022-11-24T19:56:25.122Z,3.18
2022-11-24T19:58:52.225Z,3.15
2022-11-24T20:01:20.596Z,3.11
2022-11-24T20:03:53.290Z,3.11
2022-11-24T20:06:19.768Z,3.12
2022-11-24T20:08:46.316Z,3.08
2022-11-24T20:11:18.311Z,3.07
2022-11-24T20:13:46.792Z,3.06
2022-11-24T20:16:15.815Z,3.05
2022-11-24T20:18:45.073Z,3.04
2022-11-24T20:21:17.215Z,3.04
2022-11-24T20:23:45.840Z,3.04
2022-11-24T20:26:15.569Z,3.06
2022-11-24T20:28:42.783Z,3.10
2022-11-24T20:31:21.803Z,3.13
2022-11-24T20:33:49.566Z,3.16
2022-11-24T20:36:18.895Z,3.16
2022-11-24T20:38:47.055Z,3.18
2022-11-24T20:41:16.737Z,3.23
2022-11-24T20:43:44.781Z,3.27
2022-11-24T20:46:18.130Z,3.32
2022-11-24T20:48:45.205Z,3.35
2022-11-24T20:51:13.231Z,3.37
2022-11-24T20:53:40.620Z,3.38
2022-11-24T20:56:09.818Z,3.40
2022-11-24T20:58:37.499Z,3.38
2022-11-24T21:01:21.814Z,3.39
2022-11-24T21:03:53.166Z,3.38
2022-11-24T21:06:19.747Z,3.38
2022-11-24T21:08:46.374Z,3.42
2022-11-24T21:11:14.927Z,3.43
2022-11-24T21:13:44.412Z,3.44
2022-11-24T21:16:29.138Z,3.43
2022-11-24T21:18:58.163Z,3.43
2022-11-24T21:21:28.300Z,3.43
2022-11-24T21:23:54.906Z,3.42
2022-11-24T21:26:21.401Z,3.44
2022-11-24T21:28:48.279Z,3.40
2022-11-24T21:31:20.432Z,3.38
2022-11-24T21:33:52.142Z,3.36
2022-11-24T21:36:22.470Z,3.37
2022-11-24T21:38:54.250Z,3.37
2022-11-24T21:41:22.096Z,3.42
2022-11-24T21:43:50.047Z,3.47
2022-11-24T21:46:17.461Z,3.51
2022-11-24T21:48:44.547Z,3.52
2022-11-24T21:51:17.963Z,3.53
2022-11-24T21:53:47.128Z,3.52
2022-11-24T21:56:16.984Z,3.52
2022-11-24T21:58:48.739Z,3.51
2022-11-24T22:01:17.267Z,3.54
2022-11-24T22:03:44.467Z,3.57
2022-11-24T22:06:11.495Z,3.59
2022-11-24T22:08:37.978Z,3.57
2022-11-24T22:11:07.748Z,3.59
2022-11-24T22:13:34.602Z,3.61
2022-11-24T22:16:07.304Z,3.63
2022-11-24T22:18:39.778Z,3.60
2022-11-24T22:21:07.942Z,3.53
2022-11-24T22:23:36.292Z,3.47
2022-11-24T22:26:24.827Z,3.43
2022-11-24T22:28:52.148Z,3.38
2022-11-24T22:31:26.953Z,3.32
2022-11-24T22:33:54.630Z,3.27
2022-11-24T22:36:22.964Z,3.22
2022-11-24T22:39:03.226Z,3.16
2022-11-24T22:41:31.172Z,3.13
2022-11-24T22:43:57.906Z,3.12
2022-11-24T22:46:27.037Z,3.17
2022-11-24T22:48:54.892Z,3.22
2022-11-24T22:51:26.955Z,3.25
2022-11-24T22:53:56.086Z,3.31
2022-11-24T22:56:23.469Z,3.35
2022-11-24T22:58:50.365Z,3.39
2022-11-24T23:01:22.120Z,3.43
2022-11-24T23:03:49.596Z,3.46
2022-11-24T23:06:24.006Z,3.47
2022-11-24T23:08:51.558Z,3.45
2022-11-24T23:11:29.118Z,3.49
2022-11-24T23:14:00.562Z,3.51
2022-11-24T23:16:27.700Z,3.56
2022-11-24T23:18:55.011Z,3.59
2022-11-24T23:21:24.451Z,3.61
2022-11-24T23:23:51.846Z,3.58
2022-11-24T23:26:20.992Z,3.54
2022-11-24T23:28:47.987Z,3.51
2022-11-24T23:31:16.268Z,3.51
2022-11-24T23:33:43.156Z,3.47
2022-11-24T23:36:12.751Z,3.46
2022-11-24T23:38:40.248Z,3.44
2022-11-24T23:41:12.034Z,3.39
2022-11-24T23:43:40.779Z,3.35
2022-11-24T23:46:10.003Z,3.26
2022-11-24T23:48:37.239Z,3.22
2022-11-24T23:51:10.319Z,3.18
2022-11-24T23:53:37.022Z,3.21
2022-11-24T23:56:04.355Z,3.23
2022-11-24T23:58:32.003Z,3.24
